Aviation Digital Data Service (ADDS)

Output produced by METARs form (2109 UTC 16 February 2019)
found at http://www.aviationweather.gov/metar/data/
 
Forecast for: EDSB (KARLSRUHE/BADEN , DE)
Text: TAF EDSB 161700Z 1618/1718 VRB03KT CAVOK
Forecast period: 1800 UTC 16 February 2019 to 1800 UTC 17 February 2019
Forecast type: FROM: standard forecast or significant change
Winds: variable direction winds at 3 MPH (3 knots; 1.5 m/s)
Visibility: 6 or more miles 10+ km)
Ceiling: unknown
Clouds: missing
Weather: NSW  (no significant weather)
Text: TEMPO 1702/1708 4000 BR
Forecast period: 0200 to 0800 UTC 17 February 2019
Forecast type: TEMPORARY: The following changes expected for less than half the time period
Visibility: 2.49 miles (4.01 km)
Ceiling: unknown
Clouds: missing
Weather: BR  (mist)
Text: PROB30
Forecast period: 0500 to 0800 UTC 17 February 2019
Forecast type: TEMPORARY: The following changes expected for less than half the time period
Visibility: 0.93 miles (1.50 km)
Ceiling: unknown
Clouds: missing
Weather: BCFG  (patches of fog)